sensor_id;sensor_type;location;lat;lon;timestamp;temperature;humidity
46117;DHT22;32591;48.102;11.772;2023-02-03T00:02:07;4.20;99.90
46117;DHT22;32591;48.102;11.772;2023-02-03T00:04:34;4.10;99.90
46117;DHT22;32591;48.102;11.772;2023-02-03T00:07:01;4.20;99.90
46117;DHT22;32591;48.102;11.772;2023-02-03T00:09:29;4.20;99.90
46117;DHT22;32591;48.102;11.772;2023-02-03T00:11:56;4.20;99.90
46117;DHT22;32591;48.102;11.772;2023-02-03T00:14:22;4.20;99.90
46117;DHT22;32591;48.102;11.772;2023-02-03T00:16:49;4.20;99.90
46117;DHT22;32591;48.102;11.772;2023-02-03T00:19:16;4.20;99.90
46117;DHT22;32591;48.102;11.772;2023-02-03T00:21:43;4.30;99.90
46117;DHT22;32591;48.102;11.772;2023-02-03T00:24:09;4.30;99.90
46117;DHT22;32591;48.102;11.772;2023-02-03T00:26:40;4.30;99.90
46117;DHT22;32591;48.102;11.772;2023-02-03T00:29:07;4.30;99.90
46117;DHT22;32591;48.102;11.772;2023-02-03T00:31:34;4.20;99.90
46117;DHT22;32591;48.102;11.772;2023-02-03T00:34:01;4.30;99.90
46117;DHT22;32591;48.102;11.772;2023-02-03T00:36:28;4.30;99.90
46117;DHT22;32591;48.102;11.772;2023-02-03T00:38:55;4.30;99.90
46117;DHT22;32591;48.102;11.772;2023-02-03T00:41:22;4.30;99.90
46117;DHT22;32591;48.102;11.772;2023-02-03T00:43:50;4.30;99.90
46117;DHT22;32591;48.102;11.772;2023-02-03T00:46:17;4.30;99.90
46117;DHT22;32591;48.102;11.772;2023-02-03T00:48:44;4.30;99.90
46117;DHT22;32591;48.102;11.772;2023-02-03T00:51:11;4.30;99.90
46117;DHT22;32591;48.102;11.772;2023-02-03T00:53:37;4.30;99.90
46117;DHT22;32591;48.102;11.772;2023-02-03T00:56:04;4.30;99.90
46117;DHT22;32591;48.102;11.772;2023-02-03T00:58:37;4.40;99.90
46117;DHT22;32591;48.102;11.772;2023-02-03T01:01:05;4.40;99.90
46117;DHT22;32591;48.102;11.772;2023-02-03T01:03:32;4.40;99.90
46117;DHT22;32591;48.102;11.772;2023-02-03T01:06:07;4.40;99.90
46117;DHT22;32591;48.102;11.772;2023-02-03T01:08:34;4.40;99.90
46117;DHT22;32591;48.102;11.772;2023-02-03T01:11:04;4.40;99.90
46117;DHT22;32591;48.102;11.772;2023-02-03T01:13:32;4.40;99.90
46117;DHT22;32591;48.102;11.772;2023-02-03T01:15:59;4.40;99.90
46117;DHT22;32591;48.102;11.772;2023-02-03T01:18:27;4.40;99.90
46117;DHT22;32591;48.102;11.772;2023-02-03T01:20:54;4.40;99.90
46117;DHT22;32591;48.102;11.772;2023-02-03T01:23:21;4.40;99.90
46117;DHT22;32591;48.102;11.772;2023-02-03T01:25:47;4.40;99.90
46117;DHT22;32591;48.102;11.772;2023-02-03T01:28:14;4.40;99.90
46117;DHT22;32591;48.102;11.772;2023-02-03T01:30:41;4.40;99.90
46117;DHT22;32591;48.102;11.772;2023-02-03T01:33:08;4.40;99.90
46117;DHT22;32591;48.102;11.772;2023-02-03T01:35:36;4.40;99.90
46117;DHT22;32591;48.102;11.772;2023-02-03T01:38:02;4.50;99.90
46117;DHT22;32591;48.102;11.772;2023-02-03T01:40:29;4.50;99.90
46117;DHT22;32591;48.102;11.772;2023-02-03T01:42:56;4.40;99.90
46117;DHT22;32591;48.102;11.772;2023-02-03T01:45:23;4.40;99.90
46117;DHT22;32591;48.102;11.772;2023-02-03T01:47:51;4.40;99.90
46117;DHT22;32591;48.102;11.772;2023-02-03T01:50:21;4.40;99.90
46117;DHT22;32591;48.102;11.772;2023-02-03T01:52:51;4.50;99.90
46117;DHT22;32591;48.102;11.772;2023-02-03T01:55:21;4.50;99.90
46117;DHT22;32591;48.102;11.772;2023-02-03T01:57:51;4.50;99.90
46117;DHT22;32591;48.102;11.772;2023-02-03T02:00:19;4.40;99.90
46117;DHT22;32591;48.102;11.772;2023-02-03T02:02:47;4.50;99.90
46117;DHT22;32591;48.102;11.772;2023-02-03T02:05:16;4.50;99.90
46117;DHT22;32591;48.102;11.772;2023-02-03T02:07:46;4.50;99.90
46117;DHT22;32591;48.102;11.772;2023-02-03T02:10:14;4.50;99.90
46117;DHT22;32591;48.102;11.772;2023-02-03T02:12:41;4.50;99.90
46117;DHT22;32591;48.102;11.772;2023-02-03T02:15:08;4.50;99.90
46117;DHT22;32591;48.102;11.772;2023-02-03T02:17:40;4.40;99.90
46117;DHT22;32591;48.102;11.772;2023-02-03T02:23:40;4.50;99.90
46117;DHT22;32591;48.102;11.772;2023-02-03T02:26:35;4.50;99.90
46117;DHT22;32591;48.102;11.772;2023-02-03T02:29:14;4.50;99.90
46117;DHT22;32591;48.102;11.772;2023-02-03T02:32:00;4.50;99.90
46117;DHT22;32591;48.102;11.772;2023-02-03T02:34:34;4.50;99.90
46117;DHT22;32591;48.102;11.772;2023-02-03T02:37:14;4.50;99.90
46117;DHT22;32591;48.102;11.772;2023-02-03T02:39:47;4.50;99.90
46117;DHT22;32591;48.102;11.772;2023-02-03T02:42:22;4.50;99.90
46117;DHT22;32591;48.102;11.772;2023-02-03T02:44:55;4.50;99.90
46117;DHT22;32591;48.102;11.772;2023-02-03T02:47:26;4.60;99.90
46117;DHT22;32591;48.102;11.772;2023-02-03T02:49:53;4.60;99.90
46117;DHT22;32591;48.102;11.772;2023-02-03T02:52:22;4.60;99.90
46117;DHT22;32591;48.102;11.772;2023-02-03T02:54:51;4.60;99.90
46117;DHT22;32591;48.102;11.772;2023-02-03T02:57:20;4.60;99.90
46117;DHT22;32591;48.102;11.772;2023-02-03T02:59:47;4.60;99.90
46117;DHT22;32591;48.102;11.772;2023-02-03T03:02:14;4.60;99.90
46117;DHT22;32591;48.102;11.772;2023-02-03T03:04:43;4.60;99.90
46117;DHT22;32591;48.102;11.772;2023-02-03T03:07:12;4.60;99.90
46117;DHT22;32591;48.102;11.772;2023-02-03T03:09:41;4.70;99.90
46117;DHT22;32591;48.102;11.772;2023-02-03T03:12:14;4.60;99.90
46117;DHT22;32591;48.102;11.772;2023-02-03T03:14:44;4.70;99.90
46117;DHT22;32591;48.102;11.772;2023-02-03T03:17:13;4.70;99.90
46117;DHT22;32591;48.102;11.772;2023-02-03T03:19:48;4.60;99.90
46117;DHT22;32591;48.102;11.772;2023-02-03T03:22:16;4.60;99.90
46117;DHT22;32591;48.102;11.772;2023-02-03T03:24:46;4.60;99.90
46117;DHT22;32591;48.102;11.772;2023-02-03T03:27:17;4.70;99.90
46117;DHT22;32591;48.102;11.772;2023-02-03T03:29:47;4.70;99.90
46117;DHT22;32591;48.102;11.772;2023-02-03T03:32:15;4.70;99.90
46117;DHT22;32591;48.102;11.772;2023-02-03T03:34:43;4.60;99.90
46117;DHT22;32591;48.102;11.772;2023-02-03T03:37:12;4.60;99.90
46117;DHT22;32591;48.102;11.772;2023-02-03T03:39:44;4.60;99.90
46117;DHT22;32591;48.102;11.772;2023-02-03T03:42:16;4.60;99.90
46117;DHT22;32591;48.102;11.772;2023-02-03T03:44:51;4.60;99.90
46117;DHT22;32591;48.102;11.772;2023-02-03T03:47:22;4.60;99.90
46117;DHT22;32591;48.102;11.772;2023-02-03T03:49:52;4.60;99.90
46117;DHT22;32591;48.102;11.772;2023-02-03T03:52:22;4.70;99.90
46117;DHT22;32591;48.102;11.772;2023-02-03T03:54:52;4.70;99.90
46117;DHT22;32591;48.102;11.772;2023-02-03T03:57:20;4.70;99.90
46117;DHT22;32591;48.102;11.772;2023-02-03T03:59:48;4.70;99.90
46117;DHT22;32591;48.102;11.772;2023-02-03T04:02:16;4.70;99.90
46117;DHT22;32591;48.102;11.772;2023-02-03T04:04:44;4.70;99.90
46117;DHT22;32591;48.102;11.772;2023-02-03T04:07:12;4.80;99.90
46117;DHT22;32591;48.102;11.772;2023-02-03T04:09:40;4.80;99.90
46117;DHT22;32591;48.102;11.772;2023-02-03T04:12:11;4.80;99.90
46117;DHT22;32591;48.102;11.772;2023-02-03T04:14:41;4.80;99.90
46117;DHT22;32591;48.102;11.772;2023-02-03T04:17:08;4.80;99.90
46117;DHT22;32591;48.102;11.772;2023-02-03T04:19:36;4.80;99.90
46117;DHT22;32591;48.102;11.772;2023-02-03T04:22:03;4.70;99.90
46117;DHT22;32591;48.102;11.772;2023-02-03T04:24:30;4.80;99.90
46117;DHT22;32591;48.102;11.772;2023-02-03T04:26:58;4.70;99.90
46117;DHT22;32591;48.102;11.772;2023-02-03T04:29:25;4.70;99.90
46117;DHT22;32591;48.102;11.772;2023-02-03T04:31:52;4.70;99.90
46117;DHT22;32591;48.102;11.772;2023-02-03T04:34:19;4.70;99.90
46117;DHT22;32591;48.102;11.772;2023-02-03T04:36:46;4.70;99.90
46117;DHT22;32591;48.102;11.772;2023-02-03T04:39:12;4.70;99.90
46117;DHT22;32591;48.102;11.772;2023-02-03T04:41:39;4.70;99.90
46117;DHT22;32591;48.102;11.772;2023-02-03T04:44:08;4.70;99.90
46117;DHT22;32591;48.102;11.772;2023-02-03T04:46:35;4.70;99.90
46117;DHT22;32591;48.102;11.772;2023-02-03T04:49:01;4.70;99.90
46117;DHT22;32591;48.102;11.772;2023-02-03T04:51:28;4.70;99.90
46117;DHT22;32591;48.102;11.772;2023-02-03T04:53:55;4.70;99.90
46117;DHT22;32591;48.102;11.772;2023-02-03T04:56:22;4.70;99.90
46117;DHT22;32591;48.102;11.772;2023-02-03T04:58:48;4.60;99.90
46117;DHT22;32591;48.102;11.772;2023-02-03T05:01:17;4.60;99.90
46117;DHT22;32591;48.102;11.772;2023-02-03T05:03:43;4.70;99.90
46117;DHT22;32591;48.102;11.772;2023-02-03T05:06:10;4.70;99.90
46117;DHT22;32591;48.102;11.772;2023-02-03T05:08:37;4.70;99.90
46117;DHT22;32591;48.102;11.772;2023-02-03T05:11:04;4.70;99.90
46117;DHT22;32591;48.102;11.772;2023-02-03T05:13:31;4.70;99.90
46117;DHT22;32591;48.102;11.772;2023-02-03T05:15:57;4.60;99.90
46117;DHT22;32591;48.102;11.772;2023-02-03T05:18:26;4.70;99.90
46117;DHT22;32591;48.102;11.772;2023-02-03T05:20:52;4.80;99.90
46117;DHT22;32591;48.102;11.772;2023-02-03T05:23:19;4.70;99.90
46117;DHT22;32591;48.102;11.772;2023-02-03T05:25:46;4.60;99.90
46117;DHT22;32591;48.102;11.772;2023-02-03T05:28:13;4.60;99.90
46117;DHT22;32591;48.102;11.772;2023-02-03T05:30:39;4.60;99.90
46117;DHT22;32591;48.102;11.772;2023-02-03T05:33:06;4.60;99.90
46117;DHT22;32591;48.102;11.772;2023-02-03T05:35:35;4.70;99.90
46117;DHT22;32591;48.102;11.772;2023-02-03T05:38:01;4.70;99.90
46117;DHT22;32591;48.102;11.772;2023-02-03T05:40:28;4.70;99.90
46117;DHT22;32591;48.102;11.772;2023-02-03T05:43:13;4.70;99.90
46117;DHT22;32591;48.102;11.772;2023-02-03T05:45:39;4.70;99.90
46117;DHT22;32591;48.102;11.772;2023-02-03T05:48:06;4.70;99.90
46117;DHT22;32591;48.102;11.772;2023-02-03T05:50:35;4.70;99.90
46117;DHT22;32591;48.102;11.772;2023-02-03T05:53:03;4.70;99.90
46117;DHT22;32591;48.102;11.772;2023-02-03T05:55:31;4.70;99.90
46117;DHT22;32591;48.102;11.772;2023-02-03T05:57:58;4.70;99.90
46117;DHT22;32591;48.102;11.772;2023-02-03T06:00:25;4.70;99.90
46117;DHT22;32591;48.102;11.772;2023-02-03T06:02:54;5.40;99.90
46117;DHT22;32591;48.102;11.772;2023-02-03T06:05:22;4.70;99.90
46117;DHT22;32591;48.102;11.772;2023-02-03T06:07:50;4.70;99.90
46117;DHT22;32591;48.102;11.772;2023-02-03T06:10:17;4.70;99.90
46117;DHT22;32591;48.102;11.772;2023-02-03T06:12:44;4.60;99.90
46117;DHT22;32591;48.102;11.772;2023-02-03T06:15:11;4.60;99.90
46117;DHT22;32591;48.102;11.772;2023-02-03T06:17:38;4.60;99.90
46117;DHT22;32591;48.102;11.772;2023-02-03T06:20:06;4.60;99.90
46117;DHT22;32591;48.102;11.772;2023-02-03T06:22:34;4.60;99.90
46117;DHT22;32591;48.102;11.772;2023-02-03T06:25:02;4.60;99.90
46117;DHT22;32591;48.102;11.772;2023-02-03T06:27:29;4.60;99.90
46117;DHT22;32591;48.102;11.772;2023-02-03T06:29:56;4.60;99.90
46117;DHT22;32591;48.102;11.772;2023-02-03T06:32:23;4.60;99.90
46117;DHT22;32591;48.102;11.772;2023-02-03T06:34:50;4.60;99.90
46117;DHT22;32591;48.102;11.772;2023-02-03T06:37:17;4.60;99.90
46117;DHT22;32591;48.102;11.772;2023-02-03T06:39:44;4.70;99.90
46117;DHT22;32591;48.102;11.772;2023-02-03T06:42:12;4.70;99.90
46117;DHT22;32591;48.102;11.772;2023-02-03T06:44:39;4.70;99.90
46117;DHT22;32591;48.102;11.772;2023-02-03T06:47:06;4.70;99.90
46117;DHT22;32591;48.102;11.772;2023-02-03T06:49:33;4.70;99.90
46117;DHT22;32591;48.102;11.772;2023-02-03T06:52:00;4.70;99.90
46117;DHT22;32591;48.102;11.772;2023-02-03T06:54:27;4.70;99.90
46117;DHT22;32591;48.102;11.772;2023-02-03T06:56:54;4.70;99.90
46117;DHT22;32591;48.102;11.772;2023-02-03T06:59:22;4.80;99.90
46117;DHT22;32591;48.102;11.772;2023-02-03T07:01:49;4.70;99.90
46117;DHT22;32591;48.102;11.772;2023-02-03T07:04:16;4.70;99.90
46117;DHT22;32591;48.102;11.772;2023-02-03T07:06:43;4.70;99.90
46117;DHT22;32591;48.102;11.772;2023-02-03T07:09:09;4.80;99.90
46117;DHT22;32591;48.102;11.772;2023-02-03T07:11:37;4.70;99.90
46117;DHT22;32591;48.102;11.772;2023-02-03T07:14:03;4.70;99.90
46117;DHT22;32591;48.102;11.772;2023-02-03T07:16:32;4.70;99.90
46117;DHT22;32591;48.102;11.772;2023-02-03T07:19:03;4.80;99.90
46117;DHT22;32591;48.102;11.772;2023-02-03T07:21:30;4.80;99.90
46117;DHT22;32591;48.102;11.772;2023-02-03T07:23:57;4.70;99.90
46117;DHT22;32591;48.102;11.772;2023-02-03T07:26:24;4.80;99.90
46117;DHT22;32591;48.102;11.772;2023-02-03T07:28:51;4.80;99.90
46117;DHT22;32591;48.102;11.772;2023-02-03T07:31:18;4.80;99.90
46117;DHT22;32591;48.102;11.772;2023-02-03T07:33:47;4.80;99.90
46117;DHT22;32591;48.102;11.772;2023-02-03T07:36:13;4.90;99.90
46117;DHT22;32591;48.102;11.772;2023-02-03T07:38:40;4.90;99.90
46117;DHT22;32591;48.102;11.772;2023-02-03T07:41:07;4.90;99.90
46117;DHT22;32591;48.102;11.772;2023-02-03T07:43:34;4.90;99.90
46117;DHT22;32591;48.102;11.772;2023-02-03T07:46:01;4.90;99.90
46117;DHT22;32591;48.102;11.772;2023-02-03T07:48:28;4.90;99.90
46117;DHT22;32591;48.102;11.772;2023-02-03T07:50:56;5.00;99.90
46117;DHT22;32591;48.102;11.772;2023-02-03T07:53:23;5.00;99.90
46117;DHT22;32591;48.102;11.772;2023-02-03T07:55:50;5.00;99.90
46117;DHT22;32591;48.102;11.772;2023-02-03T07:58:17;5.00;99.90
46117;DHT22;32591;48.102;11.772;2023-02-03T08:00:44;5.00;99.90
46117;DHT22;32591;48.102;11.772;2023-02-03T08:03:10;5.10;99.90
46117;DHT22;32591;48.102;11.772;2023-02-03T08:05:37;5.10;99.90
46117;DHT22;32591;48.102;11.772;2023-02-03T08:08:05;5.10;99.90
46117;DHT22;32591;48.102;11.772;2023-02-03T08:10:32;5.20;99.90
46117;DHT22;32591;48.102;11.772;2023-02-03T08:12:59;5.20;99.90
46117;DHT22;32591;48.102;11.772;2023-02-03T08:15:26;5.30;99.90
46117;DHT22;32591;48.102;11.772;2023-02-03T08:17:52;5.30;99.90
46117;DHT22;32591;48.102;11.772;2023-02-03T08:20:19;5.30;99.90
46117;DHT22;32591;48.102;11.772;2023-02-03T08:22:47;5.30;99.90
46117;DHT22;32591;48.102;11.772;2023-02-03T08:25:15;5.40;99.90
46117;DHT22;32591;48.102;11.772;2023-02-03T08:27:41;5.40;99.90
46117;DHT22;32591;48.102;11.772;2023-02-03T08:30:10;5.40;99.90
46117;DHT22;32591;48.102;11.772;2023-02-03T08:32:38;5.40;99.90
46117;DHT22;32591;48.102;11.772;2023-02-03T08:35:06;5.50;99.90
46117;DHT22;32591;48.102;11.772;2023-02-03T08:37:33;5.50;99.90
46117;DHT22;32591;48.102;11.772;2023-02-03T08:40:00;5.50;99.90
46117;DHT22;32591;48.102;11.772;2023-02-03T08:42:28;5.50;99.90
46117;DHT22;32591;48.102;11.772;2023-02-03T08:44:55;5.60;99.90
46117;DHT22;32591;48.102;11.772;2023-02-03T08:47:22;5.60;99.90
46117;DHT22;32591;48.102;11.772;2023-02-03T08:49:49;5.60;99.90
46117;DHT22;32591;48.102;11.772;2023-02-03T08:52:16;5.60;99.90
46117;DHT22;32591;48.102;11.772;2023-02-03T08:54:43;5.60;99.90
46117;DHT22;32591;48.102;11.772;2023-02-03T08:57:10;5.70;99.90
46117;DHT22;32591;48.102;11.772;2023-02-03T08:59:38;5.70;99.90
46117;DHT22;32591;48.102;11.772;2023-02-03T09:02:07;5.70;99.90
46117;DHT22;32591;48.102;11.772;2023-02-03T09:04:35;6.20;99.90
46117;DHT22;32591;48.102;11.772;2023-02-03T09:07:01;5.80;99.90
46117;DHT22;32591;48.102;11.772;2023-02-03T09:09:28;5.80;99.90
46117;DHT22;32591;48.102;11.772;2023-02-03T09:11:55;5.90;99.90
46117;DHT22;32591;48.102;11.772;2023-02-03T09:14:27;5.80;99.90
46117;DHT22;32591;48.102;11.772;2023-02-03T09:16:55;5.90;99.90
46117;DHT22;32591;48.102;11.772;2023-02-03T09:19:22;5.90;99.90
46117;DHT22;32591;48.102;11.772;2023-02-03T09:21:49;5.90;99.90
46117;DHT22;32591;48.102;11.772;2023-02-03T09:24:16;5.90;99.90
46117;DHT22;32591;48.102;11.772;2023-02-03T09:26:43;5.90;99.90
46117;DHT22;32591;48.102;11.772;2023-02-03T09:29:11;5.90;99.90
46117;DHT22;32591;48.102;11.772;2023-02-03T09:31:37;5.90;99.90
46117;DHT22;32591;48.102;11.772;2023-02-03T09:34:05;6.00;99.90
46117;DHT22;32591;48.102;11.772;2023-02-03T09:36:32;6.00;99.90
46117;DHT22;32591;48.102;11.772;2023-02-03T09:38:59;6.00;99.90
46117;DHT22;32591;48.102;11.772;2023-02-03T09:41:32;6.00;99.90
46117;DHT22;32591;48.102;11.772;2023-02-03T09:44:10;6.10;99.90
46117;DHT22;32591;48.102;11.772;2023-02-03T09:46:41;6.10;99.90
46117;DHT22;32591;48.102;11.772;2023-02-03T09:49:12;6.10;99.90
46117;DHT22;32591;48.102;11.772;2023-02-03T09:51:45;6.20;99.90
46117;DHT22;32591;48.102;11.772;2023-02-03T09:54:15;6.20;99.90
46117;DHT22;32591;48.102;11.772;2023-02-03T09:56:44;6.20;99.90
46117;DHT22;32591;48.102;11.772;2023-02-03T09:59:16;6.30;99.90
46117;DHT22;32591;48.102;11.772;2023-02-03T10:01:45;6.40;99.90
46117;DHT22;32591;48.102;11.772;2023-02-03T10:04:22;6.40;99.90
46117;DHT22;32591;48.102;11.772;2023-02-03T10:06:55;6.30;99.90
46117;DHT22;32591;48.102;11.772;2023-02-03T10:09:32;6.40;99.90
46117;DHT22;32591;48.102;11.772;2023-02-03T10:12:15;6.40;99.90
46117;DHT22;32591;48.102;11.772;2023-02-03T10:14:54;6.50;99.90
46117;DHT22;32591;48.102;11.772;2023-02-03T10:17:29;6.50;99.90
46117;DHT22;32591;48.102;11.772;2023-02-03T10:20:02;6.50;99.90
46117;DHT22;32591;48.102;11.772;2023-02-03T10:22:31;6.60;99.90
46117;DHT22;32591;48.102;11.772;2023-02-03T10:25:03;6.50;99.90
46117;DHT22;32591;48.102;11.772;2023-02-03T10:27:31;6.60;99.90
46117;DHT22;32591;48.102;11.772;2023-02-03T10:30:00;6.50;99.90
46117;DHT22;32591;48.102;11.772;2023-02-03T10:32:29;6.50;99.90
46117;DHT22;32591;48.102;11.772;2023-02-03T10:34:56;6.50;99.90
46117;DHT22;32591;48.102;11.772;2023-02-03T10:37:26;6.50;99.90
46117;DHT22;32591;48.102;11.772;2023-02-03T10:39:56;6.50;99.90
46117;DHT22;32591;48.102;11.772;2023-02-03T10:42:24;6.50;99.90
46117;DHT22;32591;48.102;11.772;2023-02-03T10:45:11;6.60;99.90
46117;DHT22;32591;48.102;11.772;2023-02-03T10:47:39;6.60;99.90
46117;DHT22;32591;48.102;11.772;2023-02-03T10:50:12;6.60;99.90
46117;DHT22;32591;48.102;11.772;2023-02-03T10:52:42;6.50;99.90
46117;DHT22;32591;48.102;11.772;2023-02-03T10:57:55;6.60;99.90
46117;DHT22;32591;48.102;11.772;2023-02-03T11:00:26;6.60;99.90
46117;DHT22;32591;48.102;11.772;2023-02-03T11:02:54;6.60;99.90
46117;DHT22;32591;48.102;11.772;2023-02-03T11:05:22;6.70;99.90
46117;DHT22;32591;48.102;11.772;2023-02-03T11:07:52;6.70;99.90
46117;DHT22;32591;48.102;11.772;2023-02-03T11:10:29;6.60;99.90
46117;DHT22;32591;48.102;11.772;2023-02-03T11:13:12;6.70;99.90
46117;DHT22;32591;48.102;11.772;2023-02-03T11:15:44;6.70;99.90
46117;DHT22;32591;48.102;11.772;2023-02-03T11:18:24;6.70;99.90
46117;DHT22;32591;48.102;11.772;2023-02-03T11:21:02;6.80;99.90
46117;DHT22;32591;48.102;11.772;2023-02-03T11:23:33;6.70;99.90
46117;DHT22;32591;48.102;11.772;2023-02-03T11:26:08;6.80;99.90
46117;DHT22;32591;48.102;11.772;2023-02-03T11:28:36;6.80;99.90
46117;DHT22;32591;48.102;11.772;2023-02-03T11:31:13;6.80;99.90
46117;DHT22;32591;48.102;11.772;2023-02-03T11:33:45;6.90;99.90
46117;DHT22;32591;48.102;11.772;2023-02-03T11:36:13;6.90;99.90
46117;DHT22;32591;48.102;11.772;2023-02-03T11:38:41;7.00;99.90
46117;DHT22;32591;48.102;11.772;2023-02-03T11:41:13;7.00;99.90
46117;DHT22;32591;48.102;11.772;2023-02-03T11:43:41;7.00;99.90
46117;DHT22;32591;48.102;11.772;2023-02-03T11:46:08;7.00;99.90
46117;DHT22;32591;48.102;11.772;2023-02-03T11:48:35;7.00;99.90
46117;DHT22;32591;48.102;11.772;2023-02-03T11:51:04;7.00;99.90
46117;DHT22;32591;48.102;11.772;2023-02-03T11:53:50;7.00;99.90
46117;DHT22;32591;48.102;11.772;2023-02-03T11:56:30;7.00;99.90
46117;DHT22;32591;48.102;11.772;2023-02-03T12:01:55;7.10;99.90
46117;DHT22;32591;48.102;11.772;2023-02-03T12:04:37;7.10;99.90
46117;DHT22;32591;48.102;11.772;2023-02-03T12:07:23;7.10;99.90
46117;DHT22;32591;48.102;11.772;2023-02-03T12:09:59;7.10;99.90
46117;DHT22;32591;48.102;11.772;2023-02-03T12:12:35;7.10;99.90
46117;DHT22;32591;48.102;11.772;2023-02-03T12:15:13;7.20;99.90
46117;DHT22;32591;48.102;11.772;2023-02-03T12:18:10;7.20;99.90
46117;DHT22;32591;48.102;11.772;2023-02-03T12:23:36;7.00;99.90
46117;DHT22;32591;48.102;11.772;2023-02-03T12:26:12;7.10;99.90
46117;DHT22;32591;48.102;11.772;2023-02-03T12:28:45;7.00;99.90
46117;DHT22;32591;48.102;11.772;2023-02-03T12:31:17;7.00;99.90
46117;DHT22;32591;48.102;11.772;2023-02-03T12:33:53;7.00;99.90
46117;DHT22;32591;48.102;11.772;2023-02-03T12:36:25;7.00;99.90
46117;DHT22;32591;48.102;11.772;2023-02-03T12:38:53;7.00;99.90
46117;DHT22;32591;48.102;11.772;2023-02-03T12:41:24;7.00;99.90
46117;DHT22;32591;48.102;11.772;2023-02-03T12:43:53;7.10;99.90
46117;DHT22;32591;48.102;11.772;2023-02-03T12:46:25;7.00;99.90
46117;DHT22;32591;48.102;11.772;2023-02-03T12:48:55;7.10;99.90
46117;DHT22;32591;48.102;11.772;2023-02-03T12:51:28;7.10;99.90
46117;DHT22;32591;48.102;11.772;2023-02-03T12:54:00;7.00;99.90
46117;DHT22;32591;48.102;11.772;2023-02-03T12:56:32;7.00;99.90
46117;DHT22;32591;48.102;11.772;2023-02-03T12:59:05;7.00;99.90
46117;DHT22;32591;48.102;11.772;2023-02-03T13:01:36;6.90;99.90
46117;DHT22;32591;48.102;11.772;2023-02-03T13:04:07;6.90;99.90
46117;DHT22;32591;48.102;11.772;2023-02-03T13:06:38;6.90;99.90
46117;DHT22;32591;48.102;11.772;2023-02-03T13:09:12;6.90;99.90
46117;DHT22;32591;48.102;11.772;2023-02-03T13:11:50;6.90;99.90
46117;DHT22;32591;48.102;11.772;2023-02-03T13:14:19;7.00;99.90
46117;DHT22;32591;48.102;11.772;2023-02-03T13:16:49;7.00;99.90
46117;DHT22;32591;48.102;11.772;2023-02-03T13:19:19;7.00;99.90
46117;DHT22;32591;48.102;11.772;2023-02-03T13:21:47;7.00;99.90
46117;DHT22;32591;48.102;11.772;2023-02-03T13:24:14;6.90;99.90
46117;DHT22;32591;48.102;11.772;2023-02-03T13:26:52;6.90;99.90
46117;DHT22;32591;48.102;11.772;2023-02-03T13:29:37;6.90;99.90
46117;DHT22;32591;48.102;11.772;2023-02-03T13:32:14;6.90;99.90
46117;DHT22;32591;48.102;11.772;2023-02-03T13:34:58;6.90;99.90
46117;DHT22;32591;48.102;11.772;2023-02-03T13:37:46;6.90;99.90
46117;DHT22;32591;48.102;11.772;2023-02-03T13:40:24;6.80;99.90
46117;DHT22;32591;48.102;11.772;2023-02-03T13:42:58;6.90;99.90
46117;DHT22;32591;48.102;11.772;2023-02-03T13:45:29;6.80;99.90
46117;DHT22;32591;48.102;11.772;2023-02-03T13:47:59;6.80;99.90
46117;DHT22;32591;48.102;11.772;2023-02-03T13:50:33;6.80;99.90
46117;DHT22;32591;48.102;11.772;2023-02-03T13:53:02;6.70;99.90
46117;DHT22;32591;48.102;11.772;2023-02-03T13:55:33;6.70;99.90
46117;DHT22;32591;48.102;11.772;2023-02-03T13:58:04;6.80;99.90
46117;DHT22;32591;48.102;11.772;2023-02-03T14:03:47;6.70;99.90
46117;DHT22;32591;48.102;11.772;2023-02-03T14:09:33;6.70;99.90
46117;DHT22;32591;48.102;11.772;2023-02-03T14:12:17;6.70;99.90
46117;DHT22;32591;48.102;11.772;2023-02-03T14:14:57;6.60;99.90
46117;DHT22;32591;48.102;11.772;2023-02-03T14:20:50;6.60;99.90
46117;DHT22;32591;48.102;11.772;2023-02-03T14:29:06;6.60;99.90
46117;DHT22;32591;48.102;11.772;2023-02-03T14:31:55;6.70;99.90
46117;DHT22;32591;48.102;11.772;2023-02-03T14:34:27;6.60;99.90
46117;DHT22;32591;48.102;11.772;2023-02-03T14:37:13;6.30;99.90
46117;DHT22;32591;48.102;11.772;2023-02-03T14:39:49;6.60;99.90
46117;DHT22;32591;48.102;11.772;2023-02-03T14:51:22;6.60;99.90
46117;DHT22;32591;48.102;11.772;2023-02-03T14:54:01;6.60;99.90
46117;DHT22;32591;48.102;11.772;2023-02-03T14:56:38;6.60;99.90
46117;DHT22;32591;48.102;11.772;2023-02-03T14:59:35;6.50;99.90
46117;DHT22;32591;48.102;11.772;2023-02-03T15:02:08;6.50;99.90
46117;DHT22;32591;48.102;11.772;2023-02-03T15:04:41;6.50;99.90
46117;DHT22;32591;48.102;11.772;2023-02-03T15:10:02;6.50;99.90
46117;DHT22;32591;48.102;11.772;2023-02-03T15:12:33;6.50;99.90
46117;DHT22;32591;48.102;11.772;2023-02-03T15:15:11;6.50;99.90
46117;DHT22;32591;48.102;11.772;2023-02-03T15:17:39;6.50;99.90
46117;DHT22;32591;48.102;11.772;2023-02-03T15:20:16;6.50;99.90
46117;DHT22;32591;48.102;11.772;2023-02-03T15:22:51;6.50;99.90
46117;DHT22;32591;48.102;11.772;2023-02-03T15:25:18;6.50;99.90
46117;DHT22;32591;48.102;11.772;2023-02-03T15:27:49;6.50;99.90
46117;DHT22;32591;48.102;11.772;2023-02-03T15:30:17;6.50;99.90
46117;DHT22;32591;48.102;11.772;2023-02-03T15:32:47;6.50;99.90
46117;DHT22;32591;48.102;11.772;2023-02-03T15:35:22;6.50;99.90
46117;DHT22;32591;48.102;11.772;2023-02-03T15:37:50;6.50;99.90
46117;DHT22;32591;48.102;11.772;2023-02-03T15:40:20;6.50;99.90
46117;DHT22;32591;48.102;11.772;2023-02-03T15:42:50;6.50;99.90
46117;DHT22;32591;48.102;11.772;2023-02-03T15:45:21;6.50;99.90
46117;DHT22;32591;48.102;11.772;2023-02-03T15:47:51;6.40;99.90
46117;DHT22;32591;48.102;11.772;2023-02-03T15:50:26;6.40;99.90
46117;DHT22;32591;48.102;11.772;2023-02-03T15:52:56;6.40;99.90
46117;DHT22;32591;48.102;11.772;2023-02-03T15:55:27;6.40;99.90
46117;DHT22;32591;48.102;11.772;2023-02-03T15:57:58;6.40;99.90
46117;DHT22;32591;48.102;11.772;2023-02-03T16:00:29;6.40;99.90
46117;DHT22;32591;48.102;11.772;2023-02-03T16:02:59;6.40;99.90
46117;DHT22;32591;48.102;11.772;2023-02-03T16:05:28;6.40;99.90
46117;DHT22;32591;48.102;11.772;2023-02-03T16:07:55;6.40;99.90
46117;DHT22;32591;48.102;11.772;2023-02-03T16:10:24;6.50;99.90
46117;DHT22;32591;48.102;11.772;2023-02-03T16:12:53;6.40;99.90
46117;DHT22;32591;48.102;11.772;2023-02-03T16:15:20;6.40;99.90
46117;DHT22;32591;48.102;11.772;2023-02-03T16:17:53;6.40;99.90
46117;DHT22;32591;48.102;11.772;2023-02-03T16:20:23;6.40;99.90
46117;DHT22;32591;48.102;11.772;2023-02-03T16:23:04;6.40;99.90
46117;DHT22;32591;48.102;11.772;2023-02-03T16:25:32;6.40;99.90
46117;DHT22;32591;48.102;11.772;2023-02-03T16:28:00;6.40;99.90